sensor_id;sensor_type;location;lat;lon;timestamp;pressure;altitude;pressure_sealevel;temperature;humidity
31717;BME280;18301;51.076;17.046;2023-04-29T00:00:53;99791.78;;;12.99;65.97
31717;BME280;18301;51.076;17.046;2023-04-29T00:05:54;99777.38;;;12.89;66.32
31717;BME280;18301;51.076;17.046;2023-04-29T00:10:56;99762.13;;;12.98;65.41
31717;BME280;18301;51.076;17.046;2023-04-29T00:15:58;99769.41;;;12.97;66.56
31717;BME280;18301;51.076;17.046;2023-04-29T00:20:59;99759.31;;;12.99;65.45
31717;BME280;18301;51.076;17.046;2023-04-29T00:26:01;99763.53;;;13.02;66.47
31717;BME280;18301;51.076;17.046;2023-04-29T00:31:02;99761.72;;;13.02;65.67
31717;BME280;18301;51.076;17.046;2023-04-29T00:36:04;99761.56;;;13.04;65.27
31717;BME280;18301;51.076;17.046;2023-04-29T00:41:06;99763.41;;;13.03;65.43
31717;BME280;18301;51.076;17.046;2023-04-29T00:46:07;99759.59;;;12.96;65.48
31717;BME280;18301;51.076;17.046;2023-04-29T00:51:10;99759.16;;;12.91;65.80
31717;BME280;18301;51.076;17.046;2023-04-29T00:56:11;99748.91;;;12.85;65.98
31717;BME280;18301;51.076;17.046;2023-04-29T01:01:15;99753.31;;;12.86;66.16
31717;BME280;18301;51.076;17.046;2023-04-29T01:06:54;99738.94;;;12.76;66.11
31717;BME280;18301;51.076;17.046;2023-04-29T01:12:12;99743.78;;;12.82;66.47
31717;BME280;18301;51.076;17.046;2023-04-29T01:17:18;99737.38;;;12.63;66.46
31717;BME280;18301;51.076;17.046;2023-04-29T01:22:23;99743.22;;;12.69;66.65
31717;BME280;18301;51.076;17.046;2023-04-29T01:27:33;99733.63;;;12.74;66.63
31717;BME280;18301;51.076;17.046;2023-04-29T01:32:51;99736.06;;;12.77;66.69
31717;BME280;18301;51.076;17.046;2023-04-29T01:38:09;99738.06;;;12.75;66.58
31717;BME280;18301;51.076;17.046;2023-04-29T01:43:14;99746.03;;;12.67;66.87
31717;BME280;18301;51.076;17.046;2023-04-29T01:48:16;99752.03;;;12.61;67.04
31717;BME280;18301;51.076;17.046;2023-04-29T01:53:18;99745.50;;;12.54;67.29
31717;BME280;18301;51.076;17.046;2023-04-29T01:58:19;99748.03;;;12.36;67.80
31717;BME280;18301;51.076;17.046;2023-04-29T02:03:21;99743.59;;;12.25;67.96
31717;BME280;18301;51.076;17.046;2023-04-29T02:08:23;99735.50;;;12.35;68.12
31717;BME280;18301;51.076;17.046;2023-04-29T02:13:25;99730.22;;;12.24;68.65
31717;BME280;18301;51.076;17.046;2023-04-29T02:18:26;99734.88;;;12.12;68.49
31717;BME280;18301;51.076;17.046;2023-04-29T02:23:28;99735.16;;;12.09;68.42
31717;BME280;18301;51.076;17.046;2023-04-29T02:28:31;99734.59;;;12.15;68.36
31717;BME280;18301;51.076;17.046;2023-04-29T02:33:32;99723.50;;;12.08;68.36
31717;BME280;18301;51.076;17.046;2023-04-29T02:38:34;99720.63;;;12.00;69.45
31717;BME280;18301;51.076;17.046;2023-04-29T02:43:35;99722.34;;;12.01;68.81
31717;BME280;18301;51.076;17.046;2023-04-29T02:48:37;99723.91;;;12.04;68.70
31717;BME280;18301;51.076;17.046;2023-04-29T02:53:38;99720.06;;;12.06;69.03
31717;BME280;18301;51.076;17.046;2023-04-29T02:58:40;99720.91;;;11.97;69.64
31717;BME280;18301;51.076;17.046;2023-04-29T03:03:42;99707.56;;;12.05;68.96
31717;BME280;18301;51.076;17.046;2023-04-29T03:08:44;99704.16;;;12.23;68.64
31717;BME280;18301;51.076;17.046;2023-04-29T03:13:45;99703.00;;;12.15;68.67
31717;BME280;18301;51.076;17.046;2023-04-29T03:18:47;99701.59;;;12.11;68.80
31717;BME280;18301;51.076;17.046;2023-04-29T03:23:49;99693.31;;;12.03;68.84
31717;BME280;18301;51.076;17.046;2023-04-29T03:28:51;99691.59;;;12.02;69.01
31717;BME280;18301;51.076;17.046;2023-04-29T03:33:52;99690.75;;;11.92;68.93
31717;BME280;18301;51.076;17.046;2023-04-29T03:38:54;99679.00;;;11.82;69.54
31717;BME280;18301;51.076;17.046;2023-04-29T03:43:55;99681.56;;;11.73;69.54
31717;BME280;18301;51.076;17.046;2023-04-29T03:49:01;99686.31;;;11.50;70.66
31717;BME280;18301;51.076;17.046;2023-04-29T03:54:02;99677.22;;;11.51;71.81
31717;BME280;18301;51.076;17.046;2023-04-29T03:59:04;99684.63;;;11.49;70.88
31717;BME280;18301;51.076;17.046;2023-04-29T04:04:05;99670.47;;;11.67;71.02
31717;BME280;18301;51.076;17.046;2023-04-29T04:09:07;99687.78;;;11.55;71.98
31717;BME280;18301;51.076;17.046;2023-04-29T04:14:08;99694.56;;;11.49;72.71
31717;BME280;18301;51.076;17.046;2023-04-29T04:19:10;99708.78;;;11.51;71.93
31717;BME280;18301;51.076;17.046;2023-04-29T04:24:12;99697.06;;;11.71;71.90
31717;BME280;18301;51.076;17.046;2023-04-29T04:29:13;99685.63;;;11.89;71.99
31717;BME280;18301;51.076;17.046;2023-04-29T04:34:15;99687.84;;;11.84;72.01
31717;BME280;18301;51.076;17.046;2023-04-29T04:39:16;99683.03;;;11.97;72.12
31717;BME280;18301;51.076;17.046;2023-04-29T04:44:17;99687.63;;;12.16;71.76
31717;BME280;18301;51.076;17.046;2023-04-29T04:49:19;99687.94;;;12.23;72.73
31717;BME280;18301;51.076;17.046;2023-04-29T04:54:20;99684.81;;;12.56;72.04
31717;BME280;18301;51.076;17.046;2023-04-29T04:59:22;99682.50;;;12.81;71.22
31717;BME280;18301;51.076;17.046;2023-04-29T05:04:23;99684.78;;;12.76;71.04
31717;BME280;18301;51.076;17.046;2023-04-29T05:09:25;99680.47;;;12.83;71.02
31717;BME280;18301;51.076;17.046;2023-04-29T05:14:27;99694.28;;;12.89;70.82
31717;BME280;18301;51.076;17.046;2023-04-29T05:19:28;99684.75;;;12.95;71.02
31717;BME280;18301;51.076;17.046;2023-04-29T05:24:30;99689.88;;;12.98;71.98
31717;BME280;18301;51.076;17.046;2023-04-29T05:29:31;99688.59;;;13.02;71.69
31717;BME280;18301;51.076;17.046;2023-04-29T05:34:33;99690.13;;;13.05;71.14
31717;BME280;18301;51.076;17.046;2023-04-29T05:39:34;99683.53;;;13.37;71.09
31717;BME280;18301;51.076;17.046;2023-04-29T05:44:36;99684.47;;;13.73;71.66
31717;BME280;18301;51.076;17.046;2023-04-29T05:49:38;99686.84;;;14.03;72.45
31717;BME280;18301;51.076;17.046;2023-04-29T05:54:39;99684.34;;;14.20;72.29
31717;BME280;18301;51.076;17.046;2023-04-29T05:59:41;99687.50;;;14.33;71.81
31717;BME280;18301;51.076;17.046;2023-04-29T06:04:43;99699.56;;;14.66;71.30
31717;BME280;18301;51.076;17.046;2023-04-29T06:09:45;99696.03;;;14.74;70.68
31717;BME280;18301;51.076;17.046;2023-04-29T06:14:46;99698.41;;;14.69;70.41
31717;BME280;18301;51.076;17.046;2023-04-29T06:19:47;99696.13;;;14.64;69.48
31717;BME280;18301;51.076;17.046;2023-04-29T06:24:49;99705.91;;;14.57;69.55
31717;BME280;18301;51.076;17.046;2023-04-29T06:29:50;99708.75;;;14.20;70.46
31717;BME280;18301;51.076;17.046;2023-04-29T06:34:52;99719.97;;;14.25;70.00
31717;BME280;18301;51.076;17.046;2023-04-29T06:39:53;99707.09;;;14.09;74.92
31717;BME280;18301;51.076;17.046;2023-04-29T06:44:55;99714.88;;;13.94;72.80
31717;BME280;18301;51.076;17.046;2023-04-29T06:49:57;99720.72;;;13.99;74.93
31717;BME280;18301;51.076;17.046;2023-04-29T06:54:58;99713.13;;;14.03;73.49
31717;BME280;18301;51.076;17.046;2023-04-29T07:00:00;99707.16;;;13.99;73.87
31717;BME280;18301;51.076;17.046;2023-04-29T07:05:01;99713.19;;;13.93;73.83
31717;BME280;18301;51.076;17.046;2023-04-29T07:10:03;99708.84;;;14.00;73.96
31717;BME280;18301;51.076;17.046;2023-04-29T07:15:05;99713.38;;;14.10;74.02
31717;BME280;18301;51.076;17.046;2023-04-29T07:20:07;99710.13;;;14.06;74.61
31717;BME280;18301;51.076;17.046;2023-04-29T07:25:09;99710.97;;;14.07;75.94
31717;BME280;18301;51.076;17.046;2023-04-29T07:30:11;99706.25;;;14.09;75.53
31717;BME280;18301;51.076;17.046;2023-04-29T07:35:13;99717.09;;;14.09;75.99
31717;BME280;18301;51.076;17.046;2023-04-29T07:40:14;99712.94;;;14.14;76.36
31717;BME280;18301;51.076;17.046;2023-04-29T07:45:16;99713.06;;;14.13;76.66
31717;BME280;18301;51.076;17.046;2023-04-29T07:50:17;99713.03;;;14.22;77.39
31717;BME280;18301;51.076;17.046;2023-04-29T07:55:19;99720.69;;;14.27;77.89
31717;BME280;18301;51.076;17.046;2023-04-29T08:00:21;99722.34;;;14.38;78.63
31717;BME280;18301;51.076;17.046;2023-04-29T08:05:22;99729.47;;;14.39;79.15
31717;BME280;18301;51.076;17.046;2023-04-29T08:10:25;99722.84;;;14.51;79.54
31717;BME280;18301;51.076;17.046;2023-04-29T08:15:27;99725.66;;;14.49;79.90
31717;BME280;18301;51.076;17.046;2023-04-29T08:20:28;99729.38;;;14.48;79.61
31717;BME280;18301;51.076;17.046;2023-04-29T08:25:30;99724.66;;;14.50;79.57
31717;BME280;18301;51.076;17.046;2023-04-29T08:30:32;99731.25;;;14.30;79.99
31717;BME280;18301;51.076;17.046;2023-04-29T08:35:34;99736.75;;;14.38;79.34
31717;BME280;18301;51.076;17.046;2023-04-29T08:40:42;99731.78;;;14.34;80.06
31717;BME280;18301;51.076;17.046;2023-04-29T08:45:45;99743.72;;;14.41;80.50
31717;BME280;18301;51.076;17.046;2023-04-29T08:50:48;99752.44;;;14.44;81.69
31717;BME280;18301;51.076;17.046;2023-04-29T08:55:51;99754.13;;;14.45;81.93
31717;BME280;18301;51.076;17.046;2023-04-29T09:00:53;99757.81;;;14.54;82.21
31717;BME280;18301;51.076;17.046;2023-04-29T09:05:59;99759.44;;;14.65;82.63
31717;BME280;18301;51.076;17.046;2023-04-29T09:11:01;99761.94;;;14.76;83.38
31717;BME280;18301;51.076;17.046;2023-04-29T09:16:02;99767.66;;;14.91;86.75
31717;BME280;18301;51.076;17.046;2023-04-29T09:26:16;99762.47;;;14.98;85.35
31717;BME280;18301;51.076;17.046;2023-04-29T09:31:26;99774.06;;;15.08;83.76
31717;BME280;18301;51.076;17.046;2023-04-29T09:36:44;99762.13;;;15.01;85.31
31717;BME280;18301;51.076;17.046;2023-04-29T09:52:12;99776.34;;;15.64;83.02
31717;BME280;18301;51.076;17.046;2023-04-29T09:57:14;99776.47;;;15.55;81.77
31717;BME280;18301;51.076;17.046;2023-04-29T10:02:17;99773.25;;;15.85;81.53
31717;BME280;18301;51.076;17.046;2023-04-29T10:07:19;99774.78;;;15.88;80.73
31717;BME280;18301;51.076;17.046;2023-04-29T10:12:23;99785.41;;;15.73;80.27
31717;BME280;18301;51.076;17.046;2023-04-29T10:18:02;99784.13;;;16.20;79.93
31717;BME280;18301;51.076;17.046;2023-04-29T10:23:09;99784.69;;;16.40;79.34
31717;BME280;18301;51.076;17.046;2023-04-29T10:28:13;99774.53;;;16.74;77.08
31717;BME280;18301;51.076;17.046;2023-04-29T10:33:17;99774.63;;;17.15;76.34
31717;BME280;18301;51.076;17.046;2023-04-29T10:38:27;99769.06;;;17.89;73.53
31717;BME280;18301;51.076;17.046;2023-04-29T10:43:30;99767.13;;;17.98;69.39
31717;BME280;18301;51.076;17.046;2023-04-29T10:48:32;99766.81;;;17.76;69.80
31717;BME280;18301;51.076;17.046;2023-04-29T10:53:33;99760.88;;;17.81;70.33
31717;BME280;18301;51.076;17.046;2023-04-29T10:58:37;99756.81;;;17.60;69.84
31717;BME280;18301;51.076;17.046;2023-04-29T11:03:48;99756.53;;;17.31;69.37
31717;BME280;18301;51.076;17.046;2023-04-29T11:09:02;99751.19;;;17.62;69.17
31717;BME280;18301;51.076;17.046;2023-04-29T11:14:03;99741.06;;;17.95;68.47
31717;BME280;18301;51.076;17.046;2023-04-29T11:19:06;99754.56;;;17.80;67.34
31717;BME280;18301;51.076;17.046;2023-04-29T11:24:08;99752.00;;;17.87;67.67
31717;BME280;18301;51.076;17.046;2023-04-29T11:29:10;99753.31;;;17.91;67.59
31717;BME280;18301;51.076;17.046;2023-04-29T11:34:11;99745.50;;;18.27;66.87
31717;BME280;18301;51.076;17.046;2023-04-29T11:39:15;99742.84;;;18.42;66.44
31717;BME280;18301;51.076;17.046;2023-04-29T11:44:20;99746.50;;;18.57;62.86
31717;BME280;18301;51.076;17.046;2023-04-29T11:49:28;99756.13;;;18.76;64.36
31717;BME280;18301;51.076;17.046;2023-04-29T11:54:31;99754.78;;;18.95;60.47
31717;BME280;18301;51.076;17.046;2023-04-29T11:59:32;99762.94;;;19.03;60.62
31717;BME280;18301;51.076;17.046;2023-04-29T12:04:44;99756.72;;;18.86;61.02
31717;BME280;18301;51.076;17.046;2023-04-29T12:09:45;99762.66;;;18.67;61.48
31717;BME280;18301;51.076;17.046;2023-04-29T12:14:48;99760.09;;;18.43;63.97
31717;BME280;18301;51.076;17.046;2023-04-29T12:19:49;99765.66;;;18.18;64.24
31717;BME280;18301;51.076;17.046;2023-04-29T12:24:51;99757.72;;;18.00;64.13
31717;BME280;18301;51.076;17.046;2023-04-29T12:29:55;99750.25;;;17.22;68.70
31717;BME280;18301;51.076;17.046;2023-04-29T12:34:57;99750.16;;;17.55;68.68
31717;BME280;18301;51.076;17.046;2023-04-29T12:39:59;99749.63;;;17.67;74.35
31717;BME280;18301;51.076;17.046;2023-04-29T12:45:00;99754.91;;;17.61;73.05
31717;BME280;18301;51.076;17.046;2023-04-29T12:50:02;99747.97;;;17.58;72.64
31717;BME280;18301;51.076;17.046;2023-04-29T12:55:04;99741.63;;;17.66;71.05
31717;BME280;18301;51.076;17.046;2023-04-29T13:00:07;99734.94;;;18.47;68.55
31717;BME280;18301;51.076;17.046;2023-04-29T13:05:09;99739.31;;;18.56;67.75
31717;BME280;18301;51.076;17.046;2023-04-29T13:10:13;99743.81;;;18.49;64.41
31717;BME280;18301;51.076;17.046;2023-04-29T13:15:14;99731.91;;;18.42;65.39
31717;BME280;18301;51.076;17.046;2023-04-29T13:20:16;99728.66;;;18.70;64.03
31717;BME280;18301;51.076;17.046;2023-04-29T13:25:17;99735.66;;;18.41;63.50
31717;BME280;18301;51.076;17.046;2023-04-29T13:30:19;99725.72;;;18.71;62.88
31717;BME280;18301;51.076;17.046;2023-04-29T13:35:20;99730.00;;;18.74;64.00
31717;BME280;18301;51.076;17.046;2023-04-29T13:40:22;99729.13;;;18.50;62.84
31717;BME280;18301;51.076;17.046;2023-04-29T13:45:28;99734.31;;;18.14;64.01
31717;BME280;18301;51.076;17.046;2023-04-29T13:50:29;99723.97;;;18.01;64.39
31717;BME280;18301;51.076;17.046;2023-04-29T13:55:34;99723.97;;;18.01;65.67
31717;BME280;18301;51.076;17.046;2023-04-29T14:00:38;99717.44;;;18.10;64.63
31717;BME280;18301;51.076;17.046;2023-04-29T14:06:00;99732.28;;;18.39;64.81
31717;BME280;18301;51.076;17.046;2023-04-29T14:11:01;99729.78;;;18.52;64.76
31717;BME280;18301;51.076;17.046;2023-04-29T14:16:03;99733.25;;;18.46;63.68
31717;BME280;18301;51.076;17.046;2023-04-29T14:21:06;99737.50;;;18.49;64.33
31717;BME280;18301;51.076;17.046;2023-04-29T14:26:08;99735.66;;;18.41;64.95
31717;BME280;18301;51.076;17.046;2023-04-29T14:31:29;99739.94;;;18.67;64.06
31717;BME280;18301;51.076;17.046;2023-04-29T14:36:31;99741.75;;;18.51;63.34
31717;BME280;18301;51.076;17.046;2023-04-29T14:41:33;99756.78;;;18.47;62.53
31717;BME280;18301;51.076;17.046;2023-04-29T14:46:34;99732.75;;;18.20;62.78
31717;BME280;18301;51.076;17.046;2023-04-29T14:51:36;99746.06;;;18.14;63.17
31717;BME280;18301;51.076;17.046;2023-04-29T14:56:37;99741.34;;;18.31;63.04
31717;BME280;18301;51.076;17.046;2023-04-29T15:01:39;99761.59;;;18.14;64.60
31717;BME280;18301;51.076;17.046;2023-04-29T15:06:40;99779.44;;;17.85;65.22
31717;BME280;18301;51.076;17.046;2023-04-29T15:11:42;99797.75;;;17.44;72.00
31717;BME280;18301;51.076;17.046;2023-04-29T15:16:43;99802.47;;;16.68;74.19
31717;BME280;18301;51.076;17.046;2023-04-29T15:21:45;99815.03;;;16.53;75.94
31717;BME280;18301;51.076;17.046;2023-04-29T15:26:46;99811.31;;;16.11;79.25
31717;BME280;18301;51.076;17.046;2023-04-29T15:31:48;99821.28;;;15.69;76.51
31717;BME280;18301;51.076;17.046;2023-04-29T15:36:50;99831.53;;;15.57;75.96
31717;BME280;18301;51.076;17.046;2023-04-29T15:41:51;99840.94;;;15.62;75.34
31717;BME280;18301;51.076;17.046;2023-04-29T15:46:54;99837.03;;;15.65;76.94
31717;BME280;18301;51.076;17.046;2023-04-29T15:51:55;99841.25;;;15.59;76.90
31717;BME280;18301;51.076;17.046;2023-04-29T15:56:57;99842.75;;;15.36;80.87
31717;BME280;18301;51.076;17.046;2023-04-29T16:01:58;99850.03;;;15.53;79.85
31717;BME280;18301;51.076;17.046;2023-04-29T16:06:59;99853.34;;;15.65;81.85
31717;BME280;18301;51.076;17.046;2023-04-29T16:12:01;99854.34;;;15.38;82.04
31717;BME280;18301;51.076;17.046;2023-04-29T16:17:03;99854.81;;;15.33;83.98
31717;BME280;18301;51.076;17.046;2023-04-29T16:22:06;99852.88;;;14.90;86.29
31717;BME280;18301;51.076;17.046;2023-04-29T16:27:07;99851.56;;;14.94;86.07
31717;BME280;18301;51.076;17.046;2023-04-29T16:32:09;99866.56;;;14.53;88.54
31717;BME280;18301;51.076;17.046;2023-04-29T16:37:10;99882.13;;;14.50;89.22
31717;BME280;18301;51.076;17.046;2023-04-29T16:42:13;99877.75;;;14.40;89.31
31717;BME280;18301;51.076;17.046;2023-04-29T16:47:14;99879.69;;;14.57;88.47
31717;BME280;18301;51.076;17.046;2023-04-29T16:52:15;99881.94;;;14.62;88.60
31717;BME280;18301;51.076;17.046;2023-04-29T16:57:17;99883.66;;;14.63;87.79
31717;BME280;18301;51.076;17.046;2023-04-29T17:02:19;99883.97;;;14.60;87.61
31717;BME280;18301;51.076;17.046;2023-04-29T17:07:21;99895.72;;;14.50;88.85
31717;BME280;18301;51.076;17.046;2023-04-29T17:12:22;99893.00;;;14.50;88.80
31717;BME280;18301;51.076;17.046;2023-04-29T17:17:24;99902.22;;;14.67;85.99
31717;BME280;18301;51.076;17.046;2023-04-29T17:22:25;99908.88;;;14.45;84.65
31717;BME280;18301;51.076;17.046;2023-04-29T17:27:27;99919.56;;;14.10;86.13
31717;BME280;18301;51.076;17.046;2023-04-29T17:32:28;99927.91;;;13.98;86.14
31717;BME280;18301;51.076;17.046;2023-04-29T17:37:30;99947.28;;;14.03;85.75
31717;BME280;18301;51.076;17.046;2023-04-29T17:42:31;99949.03;;;14.04;85.76
31717;BME280;18301;51.076;17.046;2023-04-29T17:47:33;99966.72;;;14.09;84.95
31717;BME280;18301;51.076;17.046;2023-04-29T17:52:35;99972.75;;;13.64;86.91
31717;BME280;18301;51.076;17.046;2023-04-29T17:57:37;99968.50;;;13.71;85.79
31717;BME280;18301;51.076;17.046;2023-04-29T18:02:40;99980.34;;;13.79;85.32
31717;BME280;18301;51.076;17.046;2023-04-29T18:07:42;99974.50;;;13.65;85.58
31717;BME280;18301;51.076;17.046;2023-04-29T18:12:43;99977.03;;;13.86;84.56
31717;BME280;18301;51.076;17.046;2023-04-29T18:17:45;99983.03;;;13.50;86.60
31717;BME280;18301;51.076;17.046;2023-04-29T18:22:46;99991.81;;;13.13;89.25
31717;BME280;18301;51.076;17.046;2023-04-29T18:27:48;100001.44;;;13.47;87.40
31717;BME280;18301;51.076;17.046;2023-04-29T18:32:51;100008.72;;;13.66;85.55
31717;BME280;18301;51.076;17.046;2023-04-29T18:37:53;100021.00;;;13.60;85.99
31717;BME280;18301;51.076;17.046;2023-04-29T18:42:55;100029.16;;;13.79;84.34
31717;BME280;18301;51.076;17.046;2023-04-29T18:47:56;100039.28;;;13.58;86.04
31717;BME280;18301;51.076;17.046;2023-04-29T18:52:57;100048.25;;;13.49;86.29
31717;BME280;18301;51.076;17.046;2023-04-29T18:57:59;100058.47;;;13.26;87.80
31717;BME280;18301;51.076;17.046;2023-04-29T19:03:00;100059.53;;;13.13;89.76
31717;BME280;18301;51.076;17.046;2023-04-29T19:08:02;100064.69;;;13.17;89.22
31717;BME280;18301;51.076;17.046;2023-04-29T19:13:03;100070.31;;;13.34;87.32
31717;BME280;18301;51.076;17.046;2023-04-29T19:18:05;100068.66;;;13.12;89.08
31717;BME280;18301;51.076;17.046;2023-04-29T19:23:07;100071.66;;;13.09;89.85
31717;BME280;18301;51.076;17.046;2023-04-29T19:28:08;100074.19;;;13.01;90.76
31717;BME280;18301;51.076;17.046;2023-04-29T19:33:10;100089.34;;;13.13;89.39
31717;BME280;18301;51.076;17.046;2023-04-29T19:38:11;100090.75;;;13.18;89.28
31717;BME280;18301;51.076;17.046;2023-04-29T19:43:13;100088.44;;;13.34;87.77
31717;BME280;18301;51.076;17.046;2023-04-29T19:48:15;100090.16;;;13.45;87.51
31717;BME280;18301;51.076;17.046;2023-04-29T19:53:16;100096.13;;;12.98;90.32
31717;BME280;18301;51.076;17.046;2023-04-29T19:58:18;100091.63;;;13.08;89.83
31717;BME280;18301;51.076;17.046;2023-04-29T20:03:20;100098.50;;;13.22;88.25
31717;BME280;18301;51.076;17.046;2023-04-29T20:08:21;100110.66;;;12.97;88.56
31717;BME280;18301;51.076;17.046;2023-04-29T20:13:23;100110.63;;;12.87;88.86
31717;BME280;18301;51.076;17.046;2023-04-29T20:18:25;100120.34;;;12.90;89.33
31717;BME280;18301;51.076;17.046;2023-04-29T20:23:26;100123.41;;;13.06;88.83
31717;BME280;18301;51.076;17.046;2023-04-29T20:28:28;100124.31;;;12.96;88.99
31717;BME280;18301;51.076;17.046;2023-04-29T20:33:29;100121.22;;;13.00;88.67
31717;BME280;18301;51.076;17.046;2023-04-29T20:38:34;100123.88;;;13.21;88.01
31717;BME280;18301;51.076;17.046;2023-04-29T20:43:36;100128.69;;;13.18;87.84
31717;BME280;18301;51.076;17.046;2023-04-29T20:48:37;100142.13;;;13.19;87.19
31717;BME280;18301;51.076;17.046;2023-04-29T20:53:39;100140.28;;;12.89;87.91
31717;BME280;18301;51.076;17.046;2023-04-29T20:58:40;100144.78;;;12.79;88.21
31717;BME280;18301;51.076;17.046;2023-04-29T21:03:42;100146.94;;;13.06;86.15
31717;BME280;18301;51.076;17.046;2023-04-29T21:08:43;100153.72;;;13.00;85.89
31717;BME280;18301;51.076;17.046;2023-04-29T21:13:45;100164.03;;;13.06;85.08
31717;BME280;18301;51.076;17.046;2023-04-29T21:18:50;100170.78;;;12.91;85.67
31717;BME280;18301;51.076;17.046;2023-04-29T21:23:51;100175.94;;;12.94;85.67
31717;BME280;18301;51.076;17.046;2023-04-29T21:28:53;100182.16;;;12.85;86.17
31717;BME280;18301;51.076;17.046;2023-04-29T21:33:54;100192.25;;;13.04;84.52
31717;BME280;18301;51.076;17.046;2023-04-29T21:38:56;100187.25;;;12.99;83.50
31717;BME280;18301;51.076;17.046;2023-04-29T21:43:59;100197.19;;;12.99;83.73
31717;BME280;18301;51.076;17.046;2023-04-29T21:49:02;100198.34;;;12.96;83.44
31717;BME280;18301;51.076;17.046;2023-04-29T21:54:04;100198.03;;;12.69;84.51
31717;BME280;18301;51.076;17.046;2023-04-29T21:59:08;100210.03;;;12.76;83.48
31717;BME280;18301;51.076;17.046;2023-04-29T22:04:10;100227.13;;;12.76;82.52
31717;BME280;18301;51.076;17.046;2023-04-29T22:09:11;100227.63;;;12.49;82.70
31717;BME280;18301;51.076;17.046;2023-04-29T22:14:13;100222.09;;;12.51;80.80
31717;BME280;18301;51.076;17.046;2023-04-29T22:19:14;100235.81;;;12.38;80.57
31717;BME280;18301;51.076;17.046;2023-04-29T22:24:16;100236.25;;;12.43;79.26
31717;BME280;18301;51.076;17.046;2023-04-29T22:29:17;100249.53;;;12.46;79.00
31717;BME280;18301;51.076;17.046;2023-04-29T22:34:20;100236.66;;;12.38;76.74
31717;BME280;18301;51.076;17.046;2023-04-29T22:39:21;100251.66;;;12.42;76.09
31717;BME280;18301;51.076;17.046;2023-04-29T22:44:23;100259.91;;;12.41;74.67
31717;BME280;18301;51.076;17.046;2023-04-29T22:49:24;100262.56;;;12.52;74.07
31717;BME280;18301;51.076;17.046;2023-04-29T22:54:27;100276.53;;;12.36;73.77
31717;BME280;18301;51.076;17.046;2023-04-29T22:59:28;100270.56;;;12.54;72.88
31717;BME280;18301;51.076;17.046;2023-04-29T23:04:30;100285.72;;;12.45;72.32
31717;BME280;18301;51.076;17.046;2023-04-29T23:09:33;100281.06;;;12.36;72.91
31717;BME280;18301;51.076;17.046;2023-04-29T23:14:34;100289.94;;;12.38;72.52
31717;BME280;18301;51.076;17.046;2023-04-29T23:19:36;100293.66;;;12.26;72.64
31717;BME280;18301;51.076;17.046;2023-04-29T23:24:37;100300.38;;;12.31;72.68
31717;BME280;18301;51.076;17.046;2023-04-29T23:29:40;100294.94;;;12.42;72.58
31717;BME280;18301;51.076;17.046;2023-04-29T23:34:42;100300.38;;;12.31;72.83
31717;BME280;18301;51.076;17.046;2023-04-29T23:39:43;100296.81;;;12.31;72.64
31717;BME280;18301;51.076;17.046;2023-04-29T23:44:44;100302.75;;;12.25;73.34
31717;BME280;18301;51.076;17.046;2023-04-29T23:49:46;100306.84;;;12.08;73.85
31717;BME280;18301;51.076;17.046;2023-04-29T23:54:47;100306.50;;;12.44;72.50
31717;BME280;18301;51.076;17.046;2023-04-29T23:59:49;100306.19;;;12.27;72.68
